Harmonyville, Vermont
Current Conditions -  °F | °C
As of 8:54 AM on Thursday 30 Oct 2014 (Local Time) from KVSF Reporting Station
Overcast Overcast  
Wind Chill: 40°   Ceiling: 7500
Heat Index: 40°   Visibility: 9mi
Dew Point: 39°   Wind: 0mph
Humidity: 97%   Direction: NA
Pressure: 29.94"   Gusts: NA
Location:  43.0642°N, 72.6668°W
Report Text: KVSF 301254Z AUTO 00000KT 9SM OVC075 04/04 A2994 RMK AO2 SLP144 T00440039
Loading
Personal Weather Stations






























Interactive Weather Map
Tropical Storm Tracking
New forecast layout! Learn more

10-Day Weather Forecast

Advertisements
Track Severe Weather on mobile